Time;durP1;ratioP1;P1;durP2;ratioP2;P2;SDS_P1;SDS_P2;PMS_P1;PMS_P2;Temp;Humidity;BMP_temperature;BMP_pressure;BME280_temperature;BME280_humidity;BME280_pressure;Samples;Min_cycle;Max_cycle;Signal;HPM_P1;HPM_P2
2023/08/15 00:00:18;;;;;;;9.50;4.57;;;;;;;;;;5050278;28;20686;-59
2023/08/15 00:02:43;;;;;;;9.70;4.80;;;;;;;;;;5049065;28;20317;-59
2023/08/15 00:05:09;;;;;;;8.73;5.50;;;;;;;;;;5049461;28;20219;-59
2023/08/15 00:07:34;;;;;;;11.75;5.93;;;;;;;;;;5051110;28;20211;-59
2023/08/15 00:09:59;;;;;;;12.10;4.90;;;;;;;;;;5048888;28;20222;-59
2023/08/15 00:12:25;;;;;;;12.30;4.82;;;;;;;;;;5049223;28;20243;-59
2023/08/15 00:14:50;;;;;;;9.30;5.03;;;;;;;;;;5050754;28;20211;-59
2023/08/15 00:17:16;;;;;;;12.23;5.22;;;;;;;;;;5048771;28;20203;-59
2023/08/15 00:19:41;;;;;;;10.07;5.50;;;;;;;;;;5048309;28;20214;-59
2023/08/15 00:22:06;;;;;;;10.18;4.95;;;;;;;;;;5050211;28;20221;-59
2023/08/15 00:24:32;;;;;;;12.52;5.70;;;;;;;;;;5050591;28;20219;-59
2023/08/15 00:26:57;;;;;;;14.50;5.38;;;;;;;;;;5047620;28;20215;-59
2023/08/15 00:29:22;;;;;;;11.45;6.00;;;;;;;;;;5049657;28;20215;-59
2023/08/15 00:31:47;;;;;;;13.60;6.05;;;;;;;;;;5050446;28;20219;-59
2023/08/15 00:34:13;;;;;;;11.75;5.13;;;;;;;;;;5047037;28;20211;-59
2023/08/15 00:36:38;;;;;;;12.73;5.40;;;;;;;;;;5049928;28;20223;-59
2023/08/15 00:39:03;;;;;;;9.27;5.18;;;;;;;;;;5049719;28;20215;-59
2023/08/15 00:41:29;;;;;;;12.90;5.95;;;;;;;;;;5048721;28;20211;-59
2023/08/15 00:43:55;;;;;;;11.30;5.03;;;;;;;;;;5048721;28;20231;-59
2023/08/15 00:46:20;;;;;;;14.77;6.53;;;;;;;;;;5049022;28;20303;-59
2023/08/15 00:48:46;;;;;;;11.15;6.32;;;;;;;;;;5050395;28;20302;-59
2023/08/15 00:51:11;;;;;;;12.07;6.60;;;;;;;;;;5029022;28;20226;-59
2023/08/15 00:53:37;;;;;;;15.55;7.35;;;;;;;;;;5049418;28;20634;-59
2023/08/15 00:56:02;;;;;;;11.50;7.15;;;;;;;;;;5049597;28;20258;-60
2023/08/15 00:58:28;;;;;;;13.95;6.70;;;;;;;;;;5030312;28;20424;-59
2023/08/15 01:00:53;;;;;;;11.38;7.30;;;;;;;;;;5030676;28;20207;-59
2023/08/15 01:03:18;;;;;;;10.48;6.75;;;;;;;;;;5031865;28;20276;-59
2023/08/15 01:05:44;;;;;;;11.77;7.43;;;;;;;;;;5048940;28;20219;-59
2023/08/15 01:08:09;;;;;;;10.70;6.35;;;;;;;;;;5046690;28;20219;-59
2023/08/15 01:10:34;;;;;;;10.75;6.38;;;;;;;;;;5050006;28;20211;-59
2023/08/15 01:13:02;;;;;;;12.75;7.60;;;;;;;;;;5031825;28;20219;-59
2023/08/15 01:15:29;;;;;;;12.60;7.47;;;;;;;;;;5028430;28;20290;-59
2023/08/15 01:18:03;;;;;;;13.23;7.10;;;;;;;;;;5031751;28;20701;-59
2023/08/15 01:20:31;;;;;;;11.88;7.35;;;;;;;;;;5049185;28;20302;-59
2023/08/15 01:22:57;;;;;;;15.13;7.47;;;;;;;;;;5047872;28;20796;-59
2023/08/15 01:25:23;;;;;;;11.05;7.25;;;;;;;;;;5029467;28;20214;-59
2023/08/15 01:27:48;;;;;;;11.75;7.95;;;;;;;;;;5031861;28;20223;-59
2023/08/15 01:30:13;;;;;;;12.40;8.35;;;;;;;;;;5048356;28;20207;-59
2023/08/15 01:32:45;;;;;;;12.95;8.50;;;;;;;;;;5028948;28;20478;-59
2023/08/15 01:35:14;;;;;;;12.82;7.93;;;;;;;;;;5030841;28;20207;-59
2023/08/15 01:37:40;;;;;;;13.15;7.88;;;;;;;;;;5048653;28;20208;-59
2023/08/15 01:40:05;;;;;;;9.57;6.90;;;;;;;;;;5029803;28;20569;-59
2023/08/15 01:42:31;;;;;;;9.52;7.07;;;;;;;;;;5047239;28;20215;-59
2023/08/15 01:44:57;;;;;;;13.63;8.00;;;;;;;;;;5049152;28;20829;-59
2023/08/15 01:47:22;;;;;;;13.25;7.60;;;;;;;;;;5048110;28;20207;-59
2023/08/15 01:49:47;;;;;;;11.43;7.28;;;;;;;;;;5039989;28;20364;-59
2023/08/15 01:52:12;;;;;;;13.98;7.53;;;;;;;;;;5048594;28;20302;-59
2023/08/15 01:54:38;;;;;;;11.25;7.00;;;;;;;;;;5049006;28;20207;-59
2023/08/15 01:57:03;;;;;;;10.95;7.20;;;;;;;;;;5045936;28;20261;-59
2023/08/15 01:59:28;;;;;;;11.40;6.82;;;;;;;;;;5048279;28;20211;-59
2023/08/15 02:01:54;;;;;;;14.18;6.93;;;;;;;;;;5048474;28;20215;-59
2023/08/15 02:04:19;;;;;;;12.48;7.28;;;;;;;;;;5046681;28;20254;-59
2023/08/15 02:06:44;;;;;;;12.55;7.13;;;;;;;;;;5046926;28;20298;-59
2023/08/15 02:09:10;;;;;;;17.25;7.43;;;;;;;;;;5050094;28;20254;-59
2023/08/15 02:11:35;;;;;;;11.85;7.03;;;;;;;;;;5048787;28;20221;-59
2023/08/15 02:14:00;;;;;;;12.68;7.30;;;;;;;;;;5047452;28;20215;-60
2023/08/15 02:16:26;;;;;;;10.45;6.55;;;;;;;;;;5047386;28;20239;-59
2023/08/15 02:18:51;;;;;;;12.32;7.30;;;;;;;;;;5047857;28;20219;-59
2023/08/15 02:21:16;;;;;;;12.88;7.80;;;;;;;;;;5047521;28;20211;-59
2023/08/15 02:23:41;;;;;;;14.80;9.00;;;;;;;;;;5046135;28;20720;-59
2023/08/15 02:26:07;;;;;;;11.73;8.02;;;;;;;;;;5047037;28;20203;-59
2023/08/15 02:28:32;;;;;;;12.82;8.02;;;;;;;;;;5048395;28;20223;-59
2023/08/15 02:30:57;;;;;;;11.95;7.75;;;;;;;;;;5046162;28;20584;-59
2023/08/15 02:33:23;;;;;;;12.82;8.40;;;;;;;;;;5046628;28;20219;-59
2023/08/15 02:35:49;;;;;;;13.35;7.50;;;;;;;;;;5048396;28;20298;-59
2023/08/15 02:38:15;;;;;;;12.05;7.20;;;;;;;;;;5046452;28;20265;-59
2023/08/15 02:40:41;;;;;;;12.27;7.20;;;;;;;;;;5045993;28;20616;-59
2023/08/15 02:43:06;;;;;;;12.45;7.45;;;;;;;;;;5047854;28;20230;-59
2023/08/15 02:45:32;;;;;;;13.30;6.97;;;;;;;;;;5048048;28;20211;-59
2023/08/15 02:47:57;;;;;;;10.70;7.03;;;;;;;;;;5045160;28;20219;-59
2023/08/15 02:50:22;;;;;;;15.70;7.35;;;;;;;;;;5047411;28;20211;-59
2023/08/15 02:52:48;;;;;;;14.65;7.70;;;;;;;;;;5047871;28;20214;-59
2023/08/15 02:55:13;;;;;;;12.52;7.43;;;;;;;;;;5045263;28;20225;-59
2023/08/15 02:57:38;;;;;;;12.13;7.50;;;;;;;;;;5047397;28;20207;-59
2023/08/15 03:00:04;;;;;;;12.95;7.55;;;;;;;;;;5046968;28;20241;-59
2023/08/15 03:02:29;;;;;;;13.60;7.22;;;;;;;;;;5047045;28;20215;-59
2023/08/15 03:04:55;;;;;;;13.98;6.80;;;;;;;;;;5046348;28;20264;-59
2023/08/15 03:07:20;;;;;;;13.02;7.30;;;;;;;;;;5046853;28;20507;-59
2023/08/15 03:09:45;;;;;;;12.68;6.95;;;;;;;;;;5047948;28;20207;-59
2023/08/15 03:12:10;;;;;;;16.15;7.10;;;;;;;;;;5044707;28;20272;-59
2023/08/15 03:14:36;;;;;;;12.48;6.93;;;;;;;;;;5047349;28;21307;-59
2023/08/15 03:17:02;;;;;;;14.43;6.95;;;;;;;;;;5047447;28;20222;-60
2023/08/15 03:19:27;;;;;;;13.15;6.80;;;;;;;;;;5046539;28;20210;-59
2023/08/15 03:21:52;;;;;;;11.25;6.72;;;;;;;;;;5048452;28;20277;-59
2023/08/15 03:24:17;;;;;;;12.93;6.30;;;;;;;;;;5051004;28;20218;-59
2023/08/15 03:26:43;;;;;;;10.95;6.65;;;;;;;;;;5051122;28;20215;-59
2023/08/15 03:29:08;;;;;;;11.18;6.47;;;;;;;;;;5048570;28;20640;-59
2023/08/15 03:31:33;;;;;;;12.55;7.38;;;;;;;;;;5051638;28;20207;-59
2023/08/15 03:33:59;;;;;;;9.25;6.22;;;;;;;;;;5051897;28;20319;-59
2023/08/15 03:36:24;;;;;;;10.85;6.25;;;;;;;;;;5047905;28;20678;-59
2023/08/15 03:38:50;;;;;;;11.13;6.50;;;;;;;;;;5051060;28;20231;-59
2023/08/15 03:41:15;;;;;;;11.57;6.15;;;;;;;;;;5050687;28;20222;-59
2023/08/15 03:43:40;;;;;;;14.07;5.88;;;;;;;;;;5049240;28;20223;-59
2023/08/15 03:46:06;;;;;;;12.80;6.43;;;;;;;;;;5049739;28;20474;-60
2023/08/15 03:48:31;;;;;;;15.55;6.78;;;;;;;;;;5051628;28;20223;-59
2023/08/15 03:50:57;;;;;;;12.95;6.53;;;;;;;;;;5050360;28;20678;-59
2023/08/15 03:53:22;;;;;;;12.23;5.88;;;;;;;;;;5030680;28;20310;-59
2023/08/15 03:55:49;;;;;;;12.80;6.10;;;;;;;;;;5051104;28;20678;-59
2023/08/15 03:58:16;;;;;;;10.35;5.75;;;;;;;;;;5049896;28;20555;-59
2023/08/15 04:00:41;;;;;;;11.43;5.70;;;;;;;;;;5049143;28;20223;-59
2023/08/15 04:03:07;;;;;;;12.20;5.43;;;;;;;;;;5049854;28;20223;-59
2023/08/15 04:05:32;;;;;;;11.40;4.90;;;;;;;;;;5050797;28;20638;-59
2023/08/15 04:07:57;;;;;;;11.15;4.70;;;;;;;;;;5049972;28;20215;-59
2023/08/15 04:10:22;;;;;;;9.48;4.70;;;;;;;;;;5048241;28;20213;-59
2023/08/15 04:12:48;;;;;;;11.98;5.05;;;;;;;;;;5051029;28;20223;-59
2023/08/15 04:15:13;;;;;;;13.05;5.63;;;;;;;;;;5050077;28;20284;-59
2023/08/15 04:17:38;;;;;;;12.50;5.57;;;;;;;;;;5047583;28;20638;-59
2023/08/15 04:20:05;;;;;;;14.25;5.80;;;;;;;;;;5050403;28;20211;-60
2023/08/15 04:22:31;;;;;;;9.45;4.93;;;;;;;;;;5050420;28;20571;-59
2023/08/15 04:24:56;;;;;;;12.77;5.53;;;;;;;;;;5047667;28;20242;-59
2023/08/15 04:27:21;;;;;;;10.45;5.10;;;;;;;;;;5049200;28;20227;-59
2023/08/15 04:29:46;;;;;;;13.45;5.60;;;;;;;;;;5050600;28;20221;-59
2023/08/15 04:32:12;;;;;;;13.07;5.38;;;;;;;;;;5048253;28;20670;-59
2023/08/15 04:34:37;;;;;;;12.55;5.18;;;;;;;;;;5048506;28;20269;-59
2023/08/15 04:37:02;;;;;;;13.35;5.57;;;;;;;;;;5050151;28;20288;-60
2023/08/15 04:39:28;;;;;;;13.77;5.00;;;;;;;;;;5049500;28;20273;-59
2023/08/15 04:41:53;;;;;;;12.45;5.00;;;;;;;;;;5047713;28;20207;-59
2023/08/15 04:44:18;;;;;;;11.18;5.00;;;;;;;;;;5049759;28;20266;-59
2023/08/15 04:46:43;;;;;;;10.32;4.38;;;;;;;;;;5049797;28;20321;-59
2023/08/15 04:49:09;;;;;;;14.25;5.30;;;;;;;;;;5048091;28;20207;-59
2023/08/15 04:51:34;;;;;;;9.93;5.00;;;;;;;;;;5049548;28;20203;-59
2023/08/15 04:54:00;;;;;;;13.18;5.35;;;;;;;;;;5049310;28;20215;-59
2023/08/15 04:56:25;;;;;;;12.80;5.07;;;;;;;;;;5049301;28;20215;-59
2023/08/15 04:58:51;;;;;;;11.57;4.60;;;;;;;;;;5048057;28;20217;-59
2023/08/15 05:01:16;;;;;;;11.50;4.60;;;;;;;;;;5048678;28;20741;-59
2023/08/15 05:03:41;;;;;;;13.70;4.63;;;;;;;;;;5049526;28;20750;-59
2023/08/15 05:06:06;;;;;;;15.70;5.72;;;;;;;;;;5046774;28;20622;-59
2023/08/15 05:08:32;;;;;;;13.80;5.15;;;;;;;;;;5048782;28;20623;-59
2023/08/15 05:10:57;;;;;;;11.32;5.00;;;;;;;;;;5049721;28;20280;-59
2023/08/15 05:13:22;;;;;;;11.88;4.97;;;;;;;;;;5047769;28;20217;-59
2023/08/15 05:15:48;;;;;;;12.15;4.90;;;;;;;;;;5047662;28;20207;-59
2023/08/15 05:18:15;;;;;;;11.15;5.10;;;;;;;;;;5049271;28;20207;-59
2023/08/15 05:20:40;;;;;;;10.88;4.88;;;;;;;;;;5031040;28;20250;-59
2023/08/15 05:23:05;;;;;;;13.02;5.40;;;;;;;;;;5047065;28;20262;-59
2023/08/15 05:25:31;;;;;;;15.57;5.40;;;;;;;;;;5049474;28;20312;-59
2023/08/15 05:27:56;;;;;;;12.18;5.50;;;;;;;;;;5048641;28;20211;-59
2023/08/15 05:30:22;;;;;;;13.73;5.38;;;;;;;;;;5047076;28;20231;-59
2023/08/15 05:32:47;;;;;;;12.93;5.20;;;;;;;;;;5048980;28;20230;-59
2023/08/15 05:35:12;;;;;;;15.68;6.20;;;;;;;;;;5048159;28;20547;-59
2023/08/15 05:37:38;;;;;;;13.38;6.15;;;;;;;;;;5048392;28;20580;-59
2023/08/15 05:40:04;;;;;;;16.45;5.40;;;;;;;;;;5047239;28;20215;-59
2023/08/15 05:42:29;;;;;;;14.15;5.40;;;;;;;;;;5047928;28;20215;-59
2023/08/15 05:44:54;;;;;;;15.95;5.95;;;;;;;;;;5047735;28;20318;-59
2023/08/15 05:47:20;;;;;;;13.57;6.13;;;;;;;;;;5046317;28;20617;-59
2023/08/15 05:49:46;;;;;;;12.57;5.22;;;;;;;;;;5048413;28;20690;-59
2023/08/15 05:52:11;;;;;;;15.10;5.60;;;;;;;;;;5030619;28;20249;-59
2023/08/15 05:54:37;;;;;;;13.02;5.60;;;;;;;;;;5047278;28;20218;-59
2023/08/15 05:57:02;;;;;;;11.90;5.00;;;;;;;;;;5046825;28;20268;-59
2023/08/15 05:59:27;;;;;;;12.32;5.30;;;;;;;;;;5048674;28;20215;-59
2023/08/15 06:01:53;;;;;;;13.02;4.80;;;;;;;;;;5048175;28;20727;-59
2023/08/15 06:04:18;;;;;;;14.65;5.15;;;;;;;;;;5046095;28;20779;-59
2023/08/15 06:06:43;;;;;;;12.15;4.30;;;;;;;;;;5049204;28;20341;-59
2023/08/15 06:09:09;;;;;;;11.23;4.03;;;;;;;;;;5047624;28;20690;-60
2023/08/15 06:11:34;;;;;;;9.98;4.00;;;;;;;;;;5045342;28;20298;-59
2023/08/15 06:13:59;;;;;;;12.23;4.53;;;;;;;;;;5048284;28;20219;-60
2023/08/15 06:16:24;;;;;;;10.82;4.10;;;;;;;;;;5048375;28;20264;-59
2023/08/15 06:18:50;;;;;;;12.50;4.10;;;;;;;;;;5046206;28;20203;-59
2023/08/15 06:21:15;;;;;;;12.57;4.07;;;;;;;;;;5047376;28;20215;-59
2023/08/15 06:23:40;;;;;;;12.13;4.10;;;;;;;;;;5048362;28;20235;-60
2023/08/15 06:26:06;;;;;;;12.38;3.95;;;;;;;;;;5046553;28;20621;-60
2023/08/15 06:28:31;;;;;;;13.10;3.70;;;;;;;;;;5046309;28;20214;-60
2023/08/15 06:30:56;;;;;;;11.73;4.18;;;;;;;;;;5047336;28;21175;-59
2023/08/15 06:33:22;;;;;;;10.85;3.88;;;;;;;;;;5047983;28;20302;-60
2023/08/15 06:35:47;;;;;;;9.48;3.70;;;;;;;;;;5045940;28;20253;-60
2023/08/15 06:38:12;;;;;;;10.05;3.90;;;;;;;;;;5047309;28;20223;-60
2023/08/15 06:40:38;;;;;;;13.10;4.22;;;;;;;;;;5048210;28;20211;-60
2023/08/15 06:43:04;;;;;;;13.20;3.88;;;;;;;;;;5046114;28;20231;-60
2023/08/15 06:45:29;;;;;;;10.88;3.60;;;;;;;;;;5046295;28;20222;-60
2023/08/15 06:47:54;;;;;;;11.38;3.95;;;;;;;;;;5048342;28;20219;-60
2023/08/15 06:50:20;;;;;;;10.73;3.95;;;;;;;;;;5047163;28;20230;-60
2023/08/15 06:52:46;;;;;;;11.18;3.42;;;;;;;;;;5045518;28;20227;-60
2023/08/15 06:55:11;;;;;;;10.43;3.65;;;;;;;;;;5047744;28;20235;-60
2023/08/15 06:57:36;;;;;;;12.43;3.75;;;;;;;;;;5047926;28;20341;-59
2023/08/15 07:00:02;;;;;;;10.02;3.60;;;;;;;;;;5044364;28;20203;-60
2023/08/15 07:02:28;;;;;;;10.25;3.42;;;;;;;;;;5047902;28;20346;-60
2023/08/15 07:04:54;;;;;;;11.32;3.80;;;;;;;;;;5047960;28;20305;-60
2023/08/15 07:07:19;;;;;;;13.50;3.92;;;;;;;;;;5027773;28;20708;-59
2023/08/15 07:09:46;;;;;;;10.55;3.90;;;;;;;;;;5046808;28;20293;-59
2023/08/15 07:12:11;;;;;;;10.32;3.83;;;;;;;;;;5047661;28;20575;-60
2023/08/15 07:14:37;;;;;;;13.20;4.00;;;;;;;;;;5046821;28;20701;-59
2023/08/15 07:17:02;;;;;;;11.13;4.03;;;;;;;;;;5045124;28;20211;-60
2023/08/15 07:19:27;;;;;;;13.57;4.25;;;;;;;;;;5047802;28;20708;-60
2023/08/15 07:21:53;;;;;;;13.30;4.20;;;;;;;;;;5047400;28;20686;-59
2023/08/15 07:24:18;;;;;;;13.18;4.10;;;;;;;;;;5045390;28;20276;-59
2023/08/15 07:26:44;;;;;;;13.80;4.47;;;;;;;;;;5047136;28;20265;-60
2023/08/15 07:29:09;;;;;;;10.32;3.90;;;;;;;;;;5046317;28;20219;-60
2023/08/15 07:31:35;;;;;;;10.85;3.92;;;;;;;;;;5046739;28;20218;-59
2023/08/15 07:34:00;;;;;;;14.05;4.28;;;;;;;;;;5046495;28;20215;-59
2023/08/15 07:36:25;;;;;;;9.80;4.13;;;;;;;;;;5046971;28;20211;-60
2023/08/15 07:38:50;;;;;;;11.50;4.13;;;;;;;;;;5047594;28;20223;-60
2023/08/15 07:41:16;;;;;;;13.43;4.57;;;;;;;;;;5044122;28;20223;-60
2023/08/15 07:43:41;;;;;;;10.30;3.72;;;;;;;;;;5047317;28;20227;-60
2023/08/15 07:46:06;;;;;;;11.68;4.30;;;;;;;;;;5047192;28;20261;-60
2023/08/15 07:48:32;;;;;;;9.98;3.55;;;;;;;;;;5045281;28;20258;-60
2023/08/15 07:50:57;;;;;;;10.25;3.80;;;;;;;;;;5046798;28;20211;-60
2023/08/15 07:53:23;;;;;;;10.32;3.80;;;;;;;;;;5047271;28;20211;-59
2023/08/15 07:55:48;;;;;;;11.15;4.03;;;;;;;;;;5045800;28;20234;-59
2023/08/15 07:58:14;;;;;;;9.27;3.78;;;;;;;;;;5050206;28;20212;-60
2023/08/15 08:00:39;;;;;;;9.10;3.53;;;;;;;;;;5046301;28;20215;-59
2023/08/15 08:03:05;;;;;;;10.20;3.60;;;;;;;;;;5046550;28;20305;-60
2023/08/15 08:05:30;;;;;;;11.65;3.55;;;;;;;;;;5046068;28;20330;-59
2023/08/15 08:07:56;;;;;;;10.68;3.70;;;;;;;;;;5046792;28;20235;-60
2023/08/15 08:10:22;;;;;;;11.57;3.97;;;;;;;;;;5049227;28;20686;-60
2023/08/15 08:12:47;;;;;;;9.98;4.03;;;;;;;;;;5050810;28;20214;-59
2023/08/15 08:15:12;;;;;;;12.05;3.78;;;;;;;;;;5047881;28;20249;-59
2023/08/15 08:17:37;;;;;;;10.52;4.13;;;;;;;;;;5050281;28;20241;-59
2023/08/15 08:20:08;;;;;;;11.68;4.57;;;;;;;;;;5050482;28;20250;-59
2023/08/15 08:22:33;;;;;;;11.02;4.32;;;;;;;;;;5049076;28;20207;-59
2023/08/15 08:25:05;;;;;;;9.52;3.63;;;;;;;;;;5049349;28;20219;-59
2023/08/15 08:27:30;;;;;;;13.80;4.38;;;;;;;;;;5050792;28;20250;-59
2023/08/15 08:29:55;;;;;;;11.90;4.00;;;;;;;;;;5050140;28;20700;-59
2023/08/15 08:32:21;;;;;;;9.88;3.30;;;;;;;;;;5047238;28;20662;-59
2023/08/15 08:34:46;;;;;;;14.50;3.30;;;;;;;;;;5050741;28;20203;-59
2023/08/15 08:37:12;;;;;;;8.85;3.10;;;;;;;;;;5049961;28;20302;-60
2023/08/15 08:39:37;;;;;;;12.27;3.70;;;;;;;;;;5047453;28;20223;-59
2023/08/15 08:42:03;;;;;;;9.45;3.47;;;;;;;;;;5049407;28;20674;-59
2023/08/15 08:44:29;;;;;;;10.43;3.40;;;;;;;;;;5032589;28;20223;-60
2023/08/15 08:46:54;;;;;;;11.15;3.33;;;;;;;;;;5048115;28;20210;-59
2023/08/15 08:49:19;;;;;;;12.10;3.88;;;;;;;;;;5048598;28;22916;-59
2023/08/15 08:51:45;;;;;;;12.88;4.50;;;;;;;;;;5031878;28;20207;-59
2023/08/15 08:54:10;;;;;;;12.18;3.42;;;;;;;;;;5031737;28;20301;-59
2023/08/15 08:56:35;;;;;;;12.98;3.95;;;;;;;;;;5047895;28;20290;-59
2023/08/15 08:59:04;;;;;;;10.88;3.53;;;;;;;;;;5031176;28;20211;-60
2023/08/15 09:01:31;;;;;;;10.05;3.38;;;;;;;;;;5049602;28;20569;-59
2023/08/15 09:03:56;;;;;;;10.20;3.38;;;;;;;;;;5048206;28;20309;-59
2023/08/15 09:06:21;;;;;;;9.45;3.83;;;;;;;;;;5048094;28;20644;-59
2023/08/15 09:08:46;;;;;;;9.07;3.42;;;;;;;;;;5032266;28;21945;-59
2023/08/15 09:11:12;;;;;;;11.02;3.67;;;;;;;;;;5048538;28;20662;-60
2023/08/15 09:13:45;;;;;;;9.75;3.10;;;;;;;;;;5047683;28;21220;-59
2023/08/15 09:16:10;;;;;;;11.80;3.38;;;;;;;;;;5049000;28;20227;-59
2023/08/15 09:18:35;;;;;;;11.82;3.30;;;;;;;;;;5049326;28;20211;-59
2023/08/15 09:21:04;;;;;;;10.82;3.22;;;;;;;;;;5046479;28;20226;-60
2023/08/15 09:23:30;;;;;;;10.82;3.10;;;;;;;;;;5048960;28;20229;-59
2023/08/15 09:25:55;;;;;;;10.38;3.25;;;;;;;;;;5049923;28;20309;-59
2023/08/15 09:28:21;;;;;;;8.55;2.92;;;;;;;;;;5047419;28;20306;-59
2023/08/15 09:30:51;;;;;;;10.48;3.22;;;;;;;;;;5047869;28;20269;-59
2023/08/15 09:33:16;;;;;;;11.63;3.00;;;;;;;;;;5048578;28;20231;-59
2023/08/15 09:35:42;;;;;;;11.07;2.90;;;;;;;;;;5048914;28;20238;-59
2023/08/15 09:38:07;;;;;;;9.63;3.10;;;;;;;;;;5028109;28;20646;-60
2023/08/15 09:40:33;;;;;;;10.05;3.15;;;;;;;;;;5049265;28;20690;-59
2023/08/15 09:42:58;;;;;;;8.05;2.40;;;;;;;;;;5030319;28;20273;-59
2023/08/15 09:45:23;;;;;;;9.82;2.47;;;;;;;;;;5047458;28;20261;-59
2023/08/15 09:47:49;;;;;;;6.93;2.70;;;;;;;;;;5047668;28;20269;-59
2023/08/15 09:50:15;;;;;;;8.27;2.88;;;;;;;;;;5030628;28;20268;-59
2023/08/15 09:52:41;;;;;;;7.20;2.80;;;;;;;;;;5047956;28;20225;-59
2023/08/15 09:55:08;;;;;;;7.90;2.83;;;;;;;;;;5046024;28;20748;-59
2023/08/15 09:57:34;;;;;;;8.93;3.00;;;;;;;;;;5049116;28;20215;-59
2023/08/15 09:59:59;;;;;;;8.55;2.78;;;;;;;;;;5048996;28;20280;-59
2023/08/15 10:02:24;;;;;;;10.07;3.00;;;;;;;;;;5045391;28;20226;-59
2023/08/15 10:04:51;;;;;;;9.23;2.70;;;;;;;;;;5030578;28;20905;-59
2023/08/15 10:07:16;;;;;;;9.15;2.88;;;;;;;;;;5030446;28;20242;-59
2023/08/15 10:09:42;;;;;;;8.52;2.65;;;;;;;;;;5029238;28;20238;-59
2023/08/15 10:12:07;;;;;;;8.70;2.80;;;;;;;;;;5028880;28;20616;-59
2023/08/15 10:14:33;;;;;;;7.38;3.10;;;;;;;;;;5048725;28;20610;-59
2023/08/15 10:16:58;;;;;;;12.63;3.30;;;;;;;;;;5029647;28;20696;-59
2023/08/15 10:19:25;;;;;;;9.75;2.80;;;;;;;;;;5045670;28;20357;-59
2023/08/15 10:21:51;;;;;;;8.00;3.20;;;;;;;;;;5031004;28;20215;-59
2023/08/15 10:24:17;;;;;;;9.63;3.30;;;;;;;;;;5047006;28;20280;-59
2023/08/15 10:26:42;;;;;;;11.30;3.22;;;;;;;;;;5046826;28;20285;-59
2023/08/15 10:29:08;;;;;;;10.10;3.03;;;;;;;;;;5047172;28;20210;-59
2023/08/15 10:31:34;;;;;;;10.30;3.38;;;;;;;;;;5047555;28;20215;-59
2023/08/15 10:34:01;;;;;;;7.18;3.15;;;;;;;;;;5047643;28;20211;-59
2023/08/15 10:36:26;;;;;;;9.10;3.30;;;;;;;;;;5046258;28;20215;-59
2023/08/15 10:38:51;;;;;;;9.57;3.40;;;;;;;;;;5047270;28;20594;-59
2023/08/15 10:41:18;;;;;;;11.27;3.40;;;;;;;;;;5030014;28;20219;-59
2023/08/15 10:43:50;;;;;;;11.60;3.38;;;;;;;;;;5045703;28;20689;-59
2023/08/15 10:46:18;;;;;;;10.38;3.40;;;;;;;;;;5028698;28;20268;-59
2023/08/15 10:48:50;;;;;;;10.75;3.67;;;;;;;;;;5048044;28;20227;-59
2023/08/15 10:51:17;;;;;;;10.07;3.60;;;;;;;;;;5046300;28;20219;-59
2023/08/15 10:53:42;;;;;;;9.18;3.67;;;;;;;;;;5046142;28;20214;-59
2023/08/15 10:56:08;;;;;;;10.20;3.78;;;;;;;;;;5047941;28;20207;-59
2023/08/15 10:58:33;;;;;;;12.50;3.28;;;;;;;;;;5029587;28;20210;-59
2023/08/15 11:00:59;;;;;;;8.80;3.58;;;;;;;;;;5045971;28;20238;-59
2023/08/15 11:03:25;;;;;;;10.73;4.13;;;;;;;;;;5046856;28;20231;-59
2023/08/15 11:05:50;;;;;;;13.23;4.28;;;;;;;;;;5029249;28;20272;-59
2023/08/15 11:08:17;;;;;;;9.63;3.58;;;;;;;;;;5046560;28;20207;-59
2023/08/15 11:10:43;;;;;;;9.18;3.60;;;;;;;;;;5046682;28;20215;-59
2023/08/15 11:13:09;;;;;;;11.07;3.13;;;;;;;;;;5046598;28;20215;-59
2023/08/15 11:15:34;;;;;;;9.50;3.20;;;;;;;;;;5047907;28;20554;-59
2023/08/15 11:17:59;;;;;;;8.73;3.08;;;;;;;;;;5004041;28;20210;-59
2023/08/15 11:20:29;;;;;;;12.35;3.58;;;;;;;;;;5046508;28;20250;-59
2023/08/15 11:22:56;;;;;;;10.27;3.30;;;;;;;;;;5047792;28;20246;-59
2023/08/15 11:25:21;;;;;;;10.80;4.20;;;;;;;;;;5045856;28;20264;-59
2023/08/15 11:27:50;;;;;;;9.70;3.55;;;;;;;;;;5046154;28;20219;-59
2023/08/15 11:30:15;;;;;;;11.10;3.60;;;;;;;;;;5047214;28;20211;-60
2023/08/15 11:32:40;;;;;;;8.98;3.20;;;;;;;;;;5047217;28;20226;-59
2023/08/15 11:35:06;;;;;;;10.30;3.53;;;;;;;;;;5044570;28;20214;-59
2023/08/15 11:37:31;;;;;;;10.75;3.53;;;;;;;;;;5047688;28;20207;-59
2023/08/15 11:39:57;;;;;;;10.80;3.60;;;;;;;;;;5047691;28;20734;-59
2023/08/15 11:42:22;;;;;;;10.48;3.47;;;;;;;;;;5045283;28;20211;-59
2023/08/15 11:44:59;;;;;;;9.68;3.97;;;;;;;;;;5052081;28;20223;-59
2023/08/15 11:47:24;;;;;;;8.30;3.78;;;;;;;;;;5053305;28;20209;-59
2023/08/15 11:49:50;;;;;;;11.57;4.03;;;;;;;;;;5050432;28;20301;-59
2023/08/15 11:52:17;;;;;;;9.20;3.70;;;;;;;;;;5051344;28;20257;-59
2023/08/15 11:54:46;;;;;;;12.27;3.88;;;;;;;;;;5049300;28;20215;-59
2023/08/15 11:57:11;;;;;;;10.95;3.65;;;;;;;;;;5049886;28;20208;-59
2023/08/15 11:59:36;;;;;;;12.73;4.35;;;;;;;;;;5051221;28;20209;-59
2023/08/15 12:02:02;;;;;;;10.07;3.83;;;;;;;;;;5049682;28;20211;-60
2023/08/15 12:04:27;;;;;;;13.50;4.30;;;;;;;;;;5048863;28;20265;-59
2023/08/15 12:06:52;;;;;;;10.82;3.70;;;;;;;;;;5033003;28;20330;-59
2023/08/15 12:09:18;;;;;;;10.48;3.95;;;;;;;;;;5031851;28;20207;-59
2023/08/15 12:11:43;;;;;;;9.00;4.38;;;;;;;;;;5049199;28;20230;-59
2023/08/15 12:14:18;;;;;;;10.77;4.47;;;;;;;;;;5049892;28;20211;-60
2023/08/15 12:16:43;;;;;;;14.25;4.88;;;;;;;;;;5050038;28;20301;-59
2023/08/15 12:19:08;;;;;;;11.82;4.38;;;;;;;;;;5049677;28;20317;-59
2023/08/15 12:21:34;;;;;;;8.73;3.33;;;;;;;;;;5049102;28;21346;-59
2023/08/15 12:23:59;;;;;;;9.10;3.72;;;;;;;;;;5049922;28;20234;-59
2023/08/15 12:26:25;;;;;;;7.03;3.25;;;;;;;;;;5050402;28;20218;-59
2023/08/15 12:28:51;;;;;;;11.15;3.83;;;;;;;;;;5048342;28;20566;-59
2023/08/15 12:31:16;;;;;;;11.88;4.38;;;;;;;;;;5049056;28;20302;-60
2023/08/15 12:33:41;;;;;;;9.45;3.70;;;;;;;;;;5050689;28;20218;-60
2023/08/15 12:36:07;;;;;;;9.77;4.00;;;;;;;;;;5048734;28;20693;-60
2023/08/15 12:38:32;;;;;;;11.55;4.80;;;;;;;;;;5048377;28;20315;-59
2023/08/15 12:40:57;;;;;;;9.77;4.30;;;;;;;;;;5050767;28;20334;-59
2023/08/15 12:43:23;;;;;;;12.75;4.00;;;;;;;;;;5049202;28;20310;-59
2023/08/15 12:45:48;;;;;;;11.10;4.30;;;;;;;;;;5047914;28;20239;-59
2023/08/15 12:48:13;;;;;;;12.45;4.80;;;;;;;;;;5049948;28;20218;-59
2023/08/15 12:50:39;;;;;;;7.95;4.10;;;;;;;;;;5050173;28;20207;-59
2023/08/15 12:53:05;;;;;;;10.75;4.32;;;;;;;;;;5047188;28;20212;-60
2023/08/15 12:55:30;;;;;;;10.02;4.20;;;;;;;;;;5049438;28;20207;-59
2023/08/15 12:57:55;;;;;;;9.63;3.92;;;;;;;;;;5049345;28;20215;-59
2023/08/15 13:00:21;;;;;;;9.43;4.70;;;;;;;;;;5047808;28;20207;-59
2023/08/15 13:02:46;;;;;;;12.00;4.70;;;;;;;;;;5048752;28;20222;-59
2023/08/15 13:05:11;;;;;;;12.02;4.80;;;;;;;;;;5031071;28;20726;-59
2023/08/15 13:07:37;;;;;;;11.00;4.25;;;;;;;;;;5049728;28;20207;-59
2023/08/15 13:10:02;;;;;;;13.40;4.50;;;;;;;;;;5047218;28;20207;-59
2023/08/15 13:12:28;;;;;;;11.65;4.82;;;;;;;;;;5049162;28;20696;-59
2023/08/15 13:14:53;;;;;;;11.32;4.28;;;;;;;;;;5049818;28;20641;-59
2023/08/15 13:17:18;;;;;;;11.30;5.15;;;;;;;;;;5047481;28;20214;-59
2023/08/15 13:19:44;;;;;;;11.75;4.55;;;;;;;;;;5048564;28;20924;-59
2023/08/15 13:22:09;;;;;;;9.90;4.82;;;;;;;;;;5049139;28;20594;-59
2023/08/15 13:24:34;;;;;;;10.63;4.38;;;;;;;;;;5048432;28;20572;-59
2023/08/15 13:27:00;;;;;;;11.57;4.13;;;;;;;;;;5047536;28;20584;-59
2023/08/15 13:29:26;;;;;;;11.93;4.07;;;;;;;;;;5049058;28;20263;-59
2023/08/15 13:31:52;;;;;;;9.18;3.72;;;;;;;;;;5048325;28;20223;-59
2023/08/15 13:34:17;;;;;;;10.43;4.25;;;;;;;;;;5023587;28;20302;-59
2023/08/15 13:36:43;;;;;;;11.43;3.78;;;;;;;;;;5023775;28;20660;-59
2023/08/15 13:39:08;;;;;;;12.80;4.60;;;;;;;;;;5023880;28;20240;-59
2023/08/15 13:41:33;;;;;;;9.73;4.05;;;;;;;;;;5016136;28;20214;-59
2023/08/15 13:44:00;;;;;;;10.20;3.92;;;;;;;;;;5036243;28;20262;-59
2023/08/15 13:46:25;;;;;;;8.90;3.38;;;;;;;;;;5030447;28;20562;-59
2023/08/15 13:48:50;;;;;;;10.18;3.80;;;;;;;;;;5030383;28;20285;-59
2023/08/15 13:51:17;;;;;;;9.63;3.33;;;;;;;;;;5032751;28;20242;-59
2023/08/15 13:53:43;;;;;;;10.77;3.20;;;;;;;;;;5030562;28;20822;-59
2023/08/15 13:56:09;;;;;;;6.90;2.97;;;;;;;;;;5024726;28;20559;-59
2023/08/15 13:58:34;;;;;;;9.25;3.65;;;;;;;;;;5024663;28;20797;-59
2023/08/15 14:00:59;;;;;;;7.40;3.17;;;;;;;;;;5022946;28;20223;-59
2023/08/15 14:03:29;;;;;;;8.73;3.50;;;;;;;;;;5026864;28;20674;-59
2023/08/15 14:05:54;;;;;;;9.95;3.42;;;;;;;;;;5030462;28;20219;-59
2023/08/15 14:08:20;;;;;;;9.65;3.13;;;;;;;;;;5031764;28;20223;-59
2023/08/15 14:10:45;;;;;;;8.20;3.40;;;;;;;;;;5030361;28;20231;-59
2023/08/15 14:13:11;;;;;;;7.97;3.00;;;;;;;;;;5030344;28;20422;-59
2023/08/15 14:15:36;;;;;;;8.70;2.92;;;;;;;;;;5032295;28;20218;-59
2023/08/15 14:18:02;;;;;;;9.43;3.20;;;;;;;;;;5027387;28;20250;-60
2023/08/15 14:20:27;;;;;;;7.85;2.90;;;;;;;;;;5021759;28;20220;-59
2023/08/15 14:22:53;;;;;;;9.18;3.17;;;;;;;;;;5022645;28;20199;-59